sensor_id;sensor_type;location;lat;lon;timestamp;P1;durP1;ratioP1;P2;durP2;ratioP2
6422;SDS011;3244;42.708;23.288;2024-01-30T00:00:14;5.22;;;3.80;;
6422;SDS011;3244;42.708;23.288;2024-01-30T00:02:41;4.53;;;3.42;;
6422;SDS011;3244;42.708;23.288;2024-01-30T00:05:08;4.50;;;4.07;;
6422;SDS011;3244;42.708;23.288;2024-01-30T00:07:34;4.30;;;3.85;;
6422;SDS011;3244;42.708;23.288;2024-01-30T00:10:03;4.38;;;3.47;;
6422;SDS011;3244;42.708;23.288;2024-01-30T00:12:31;3.90;;;3.55;;
6422;SDS011;3244;42.708;23.288;2024-01-30T00:14:58;3.72;;;3.15;;
6422;SDS011;3244;42.708;23.288;2024-01-30T00:17:24;4.00;;;3.67;;
6422;SDS011;3244;42.708;23.288;2024-01-30T00:19:51;3.88;;;3.55;;
6422;SDS011;3244;42.708;23.288;2024-01-30T00:22:18;4.00;;;3.60;;
6422;SDS011;3244;42.708;23.288;2024-01-30T00:24:44;4.85;;;3.60;;
6422;SDS011;3244;42.708;23.288;2024-01-30T00:27:12;7.50;;;3.67;;
6422;SDS011;3244;42.708;23.288;2024-01-30T00:29:39;4.05;;;3.75;;
6422;SDS011;3244;42.708;23.288;2024-01-30T00:32:06;3.45;;;3.25;;
6422;SDS011;3244;42.708;23.288;2024-01-30T00:34:33;5.65;;;4.10;;
6422;SDS011;3244;42.708;23.288;2024-01-30T00:36:59;4.10;;;3.15;;
6422;SDS011;3244;42.708;23.288;2024-01-30T00:39:26;3.67;;;3.35;;
6422;SDS011;3244;42.708;23.288;2024-01-30T00:41:53;3.10;;;2.90;;
6422;SDS011;3244;42.708;23.288;2024-01-30T00:44:21;6.20;;;4.35;;
6422;SDS011;3244;42.708;23.288;2024-01-30T00:46:47;3.53;;;3.17;;
6422;SDS011;3244;42.708;23.288;2024-01-30T00:49:14;4.68;;;3.42;;
6422;SDS011;3244;42.708;23.288;2024-01-30T00:51:40;4.60;;;3.78;;
6422;SDS011;3244;42.708;23.288;2024-01-30T00:54:07;4.65;;;3.40;;
6422;SDS011;3244;42.708;23.288;2024-01-30T00:56:33;3.78;;;3.45;;
6422;SDS011;3244;42.708;23.288;2024-01-30T00:59:00;4.95;;;2.83;;
6422;SDS011;3244;42.708;23.288;2024-01-30T01:01:28;5.40;;;3.47;;
6422;SDS011;3244;42.708;23.288;2024-01-30T01:03:54;3.50;;;3.20;;
6422;SDS011;3244;42.708;23.288;2024-01-30T01:06:21;3.70;;;3.40;;
6422;SDS011;3244;42.708;23.288;2024-01-30T01:08:47;4.10;;;3.53;;
6422;SDS011;3244;42.708;23.288;2024-01-30T01:11:14;5.45;;;3.53;;
6422;SDS011;3244;42.708;23.288;2024-01-30T01:13:40;3.30;;;3.00;;
6422;SDS011;3244;42.708;23.288;2024-01-30T01:16:06;3.50;;;3.20;;
6422;SDS011;3244;42.708;23.288;2024-01-30T01:18:34;4.15;;;3.47;;
6422;SDS011;3244;42.708;23.288;2024-01-30T01:21:01;3.83;;;3.33;;
6422;SDS011;3244;42.708;23.288;2024-01-30T01:23:27;6.03;;;2.83;;
6422;SDS011;3244;42.708;23.288;2024-01-30T01:25:53;4.72;;;3.08;;
6422;SDS011;3244;42.708;23.288;2024-01-30T01:28:20;7.97;;;3.40;;
6422;SDS011;3244;42.708;23.288;2024-01-30T01:30:47;3.55;;;3.17;;
6422;SDS011;3244;42.708;23.288;2024-01-30T01:33:13;3.50;;;3.20;;
6422;SDS011;3244;42.708;23.288;2024-01-30T01:35:41;3.75;;;3.45;;
6422;SDS011;3244;42.708;23.288;2024-01-30T01:38:08;3.38;;;3.08;;
6422;SDS011;3244;42.708;23.288;2024-01-30T01:40:34;2.83;;;2.63;;
6422;SDS011;3244;42.708;23.288;2024-01-30T01:43:02;5.40;;;3.40;;
6422;SDS011;3244;42.708;23.288;2024-01-30T01:45:29;3.75;;;3.45;;
6422;SDS011;3244;42.708;23.288;2024-01-30T01:47:55;3.20;;;2.80;;
6422;SDS011;3244;42.708;23.288;2024-01-30T01:50:21;3.58;;;3.13;;
6422;SDS011;3244;42.708;23.288;2024-01-30T01:52:50;2.47;;;2.28;;
6422;SDS011;3244;42.708;23.288;2024-01-30T01:55:18;3.53;;;3.22;;
6422;SDS011;3244;42.708;23.288;2024-01-30T01:57:49;3.60;;;3.30;;
6422;SDS011;3244;42.708;23.288;2024-01-30T02:00:16;3.00;;;2.75;;
6422;SDS011;3244;42.708;23.288;2024-01-30T02:02:43;4.00;;;3.28;;
6422;SDS011;3244;42.708;23.288;2024-01-30T02:05:09;3.92;;;3.42;;
6422;SDS011;3244;42.708;23.288;2024-01-30T02:07:36;4.18;;;3.40;;
6422;SDS011;3244;42.708;23.288;2024-01-30T02:10:04;4.22;;;3.75;;
6422;SDS011;3244;42.708;23.288;2024-01-30T02:12:31;4.57;;;3.88;;
6422;SDS011;3244;42.708;23.288;2024-01-30T02:14:57;4.05;;;3.75;;
6422;SDS011;3244;42.708;23.288;2024-01-30T02:17:24;4.53;;;4.03;;
6422;SDS011;3244;42.708;23.288;2024-01-30T02:19:51;4.25;;;3.80;;
6422;SDS011;3244;42.708;23.288;2024-01-30T02:22:19;4.45;;;4.15;;
6422;SDS011;3244;42.708;23.288;2024-01-30T02:24:46;3.53;;;3.22;;
6422;SDS011;3244;42.708;23.288;2024-01-30T02:27:12;3.50;;;3.20;;
6422;SDS011;3244;42.708;23.288;2024-01-30T02:29:39;4.50;;;3.30;;
6422;SDS011;3244;42.708;23.288;2024-01-30T02:32:06;3.60;;;3.30;;
6422;SDS011;3244;42.708;23.288;2024-01-30T02:34:32;4.20;;;3.70;;
6422;SDS011;3244;42.708;23.288;2024-01-30T02:36:59;4.35;;;3.42;;
6422;SDS011;3244;42.708;23.288;2024-01-30T02:39:27;4.47;;;4.07;;
6422;SDS011;3244;42.708;23.288;2024-01-30T02:41:54;6.00;;;3.58;;
6422;SDS011;3244;42.708;23.288;2024-01-30T02:44:20;3.85;;;3.33;;
6422;SDS011;3244;42.708;23.288;2024-01-30T02:46:47;3.63;;;3.35;;
6422;SDS011;3244;42.708;23.288;2024-01-30T02:49:13;4.57;;;4.22;;
6422;SDS011;3244;42.708;23.288;2024-01-30T02:51:40;3.35;;;3.08;;
6422;SDS011;3244;42.708;23.288;2024-01-30T02:54:06;4.40;;;4.10;;
6422;SDS011;3244;42.708;23.288;2024-01-30T02:56:34;3.42;;;3.13;;
6422;SDS011;3244;42.708;23.288;2024-01-30T02:59:00;4.72;;;3.60;;
6422;SDS011;3244;42.708;23.288;2024-01-30T03:01:27;4.28;;;3.58;;
6422;SDS011;3244;42.708;23.288;2024-01-30T03:03:53;4.05;;;3.75;;
6422;SDS011;3244;42.708;23.288;2024-01-30T03:06:20;3.67;;;3.38;;
6422;SDS011;3244;42.708;23.288;2024-01-30T03:08:48;3.08;;;2.88;;
6422;SDS011;3244;42.708;23.288;2024-01-30T03:11:15;3.63;;;3.13;;
6422;SDS011;3244;42.708;23.288;2024-01-30T03:13:43;3.42;;;3.17;;
6422;SDS011;3244;42.708;23.288;2024-01-30T03:16:10;4.05;;;3.67;;
6422;SDS011;3244;42.708;23.288;2024-01-30T03:18:36;3.65;;;3.28;;
6422;SDS011;3244;42.708;23.288;2024-01-30T03:21:03;3.83;;;3.55;;
6422;SDS011;3244;42.708;23.288;2024-01-30T03:23:30;3.20;;;2.90;;
6422;SDS011;3244;42.708;23.288;2024-01-30T03:25:57;2.60;;;2.40;;
6422;SDS011;3244;42.708;23.288;2024-01-30T03:28:24;3.97;;;3.67;;
6422;SDS011;3244;42.708;23.288;2024-01-30T03:30:51;3.35;;;2.72;;
6422;SDS011;3244;42.708;23.288;2024-01-30T03:33:18;2.45;;;2.03;;
6422;SDS011;3244;42.708;23.288;2024-01-30T03:35:44;2.92;;;2.55;;
6422;SDS011;3244;42.708;23.288;2024-01-30T03:38:11;2.33;;;2.15;;
6422;SDS011;3244;42.708;23.288;2024-01-30T03:40:37;2.80;;;2.60;;
6422;SDS011;3244;42.708;23.288;2024-01-30T03:43:04;3.92;;;2.15;;
6422;SDS011;3244;42.708;23.288;2024-01-30T03:45:31;2.55;;;2.35;;
6422;SDS011;3244;42.708;23.288;2024-01-30T03:47:59;3.30;;;2.65;;
6422;SDS011;3244;42.708;23.288;2024-01-30T03:50:25;3.33;;;2.58;;
6422;SDS011;3244;42.708;23.288;2024-01-30T03:52:53;2.10;;;2.00;;
6422;SDS011;3244;42.708;23.288;2024-01-30T03:55:19;3.22;;;2.92;;
6422;SDS011;3244;42.708;23.288;2024-01-30T03:57:46;2.10;;;2.00;;
6422;SDS011;3244;42.708;23.288;2024-01-30T04:00:13;2.65;;;1.67;;
6422;SDS011;3244;42.708;23.288;2024-01-30T04:02:40;2.30;;;2.17;;
6422;SDS011;3244;42.708;23.288;2024-01-30T04:05:08;2.10;;;2.00;;
6422;SDS011;3244;42.708;23.288;2024-01-30T04:07:35;3.35;;;2.67;;
6422;SDS011;3244;42.708;23.288;2024-01-30T04:10:01;1.80;;;1.70;;
6422;SDS011;3244;42.708;23.288;2024-01-30T04:12:30;3.20;;;2.90;;
6422;SDS011;3244;42.708;23.288;2024-01-30T04:14:57;2.80;;;2.60;;
6422;SDS011;3244;42.708;23.288;2024-01-30T04:17:23;3.45;;;2.95;;
6422;SDS011;3244;42.708;23.288;2024-01-30T04:19:49;2.00;;;1.85;;
6422;SDS011;3244;42.708;23.288;2024-01-30T04:22:17;6.80;;;3.17;;
6422;SDS011;3244;42.708;23.288;2024-01-30T04:24:44;2.78;;;2.55;;
6422;SDS011;3244;42.708;23.288;2024-01-30T04:27:10;2.65;;;2.42;;
6422;SDS011;3244;42.708;23.288;2024-01-30T04:29:37;3.03;;;2.70;;
6422;SDS011;3244;42.708;23.288;2024-01-30T04:32:04;4.00;;;3.13;;
6422;SDS011;3244;42.708;23.288;2024-01-30T04:34:31;3.28;;;2.97;;
6422;SDS011;3244;42.708;23.288;2024-01-30T04:36:57;9.60;;;3.25;;
6422;SDS011;3244;42.708;23.288;2024-01-30T04:39:25;3.00;;;2.80;;
6422;SDS011;3244;42.708;23.288;2024-01-30T04:41:51;3.85;;;2.53;;
6422;SDS011;3244;42.708;23.288;2024-01-30T04:44:18;4.65;;;2.53;;
6422;SDS011;3244;42.708;23.288;2024-01-30T04:46:45;5.70;;;3.00;;
6422;SDS011;3244;42.708;23.288;2024-01-30T04:49:11;2.97;;;2.78;;
6422;SDS011;3244;42.708;23.288;2024-01-30T04:51:38;2.72;;;2.50;;
6422;SDS011;3244;42.708;23.288;2024-01-30T04:54:04;2.97;;;2.67;;
6422;SDS011;3244;42.708;23.288;2024-01-30T04:56:32;3.30;;;3.00;;
6422;SDS011;3244;42.708;23.288;2024-01-30T04:58:58;3.35;;;2.33;;
6422;SDS011;3244;42.708;23.288;2024-01-30T05:01:25;3.47;;;3.17;;
6422;SDS011;3244;42.708;23.288;2024-01-30T05:03:51;3.35;;;3.03;;
6422;SDS011;3244;42.708;23.288;2024-01-30T05:06:23;3.53;;;2.95;;
6422;SDS011;3244;42.708;23.288;2024-01-30T05:08:50;3.90;;;3.58;;
6422;SDS011;3244;42.708;23.288;2024-01-30T05:11:17;5.30;;;3.35;;
6422;SDS011;3244;42.708;23.288;2024-01-30T05:13:45;3.83;;;2.90;;
6422;SDS011;3244;42.708;23.288;2024-01-30T05:16:11;4.68;;;3.55;;
6422;SDS011;3244;42.708;23.288;2024-01-30T05:18:38;5.05;;;3.17;;
6422;SDS011;3244;42.708;23.288;2024-01-30T05:21:05;10.85;;;3.45;;
6422;SDS011;3244;42.708;23.288;2024-01-30T05:23:31;7.35;;;3.45;;
6422;SDS011;3244;42.708;23.288;2024-01-30T05:25:58;5.55;;;3.70;;
6422;SDS011;3244;42.708;23.288;2024-01-30T05:28:25;4.40;;;4.00;;
6422;SDS011;3244;42.708;23.288;2024-01-30T05:30:53;6.10;;;4.05;;
6422;SDS011;3244;42.708;23.288;2024-01-30T05:33:20;4.05;;;3.60;;
6422;SDS011;3244;42.708;23.288;2024-01-30T05:35:47;4.10;;;3.70;;
6422;SDS011;3244;42.708;23.288;2024-01-30T05:38:13;4.63;;;3.45;;
6422;SDS011;3244;42.708;23.288;2024-01-30T05:40:41;4.18;;;3.78;;
6422;SDS011;3244;42.708;23.288;2024-01-30T05:43:08;4.35;;;3.85;;
6422;SDS011;3244;42.708;23.288;2024-01-30T05:45:34;6.15;;;4.22;;
6422;SDS011;3244;42.708;23.288;2024-01-30T05:48:02;4.13;;;3.83;;
6422;SDS011;3244;42.708;23.288;2024-01-30T05:50:29;8.40;;;4.65;;
6422;SDS011;3244;42.708;23.288;2024-01-30T05:52:56;6.63;;;4.43;;
6422;SDS011;3244;42.708;23.288;2024-01-30T05:55:23;7.45;;;3.83;;
6422;SDS011;3244;42.708;23.288;2024-01-30T05:57:49;10.98;;;4.53;;
6422;SDS011;3244;42.708;23.288;2024-01-30T06:00:16;4.20;;;3.75;;
6422;SDS011;3244;42.708;23.288;2024-01-30T06:02:42;4.70;;;4.20;;
6422;SDS011;3244;42.708;23.288;2024-01-30T06:05:10;3.67;;;3.42;;
6422;SDS011;3244;42.708;23.288;2024-01-30T06:07:37;4.53;;;4.07;;
6422;SDS011;3244;42.708;23.288;2024-01-30T06:10:04;9.57;;;3.65;;
6422;SDS011;3244;42.708;23.288;2024-01-30T06:12:30;3.25;;;3.05;;
6422;SDS011;3244;42.708;23.288;2024-01-30T06:14:56;3.10;;;2.90;;
6422;SDS011;3244;42.708;23.288;2024-01-30T06:17:23;2.60;;;2.40;;
6422;SDS011;3244;42.708;23.288;2024-01-30T06:19:50;4.93;;;3.28;;
6422;SDS011;3244;42.708;23.288;2024-01-30T06:22:18;6.93;;;2.25;;
6422;SDS011;3244;42.708;23.288;2024-01-30T06:24:44;3.20;;;2.33;;
6422;SDS011;3244;42.708;23.288;2024-01-30T06:27:13;7.57;;;3.17;;
6422;SDS011;3244;42.708;23.288;2024-01-30T06:29:39;4.50;;;3.97;;
6422;SDS011;3244;42.708;23.288;2024-01-30T06:32:06;7.22;;;4.18;;
6422;SDS011;3244;42.708;23.288;2024-01-30T06:34:32;6.82;;;4.22;;
6422;SDS011;3244;42.708;23.288;2024-01-30T06:36:59;11.52;;;5.20;;
6422;SDS011;3244;42.708;23.288;2024-01-30T06:39:27;8.32;;;4.88;;
6422;SDS011;3244;42.708;23.288;2024-01-30T06:41:53;8.20;;;5.32;;
6422;SDS011;3244;42.708;23.288;2024-01-30T06:44:20;5.00;;;3.90;;
6422;SDS011;3244;42.708;23.288;2024-01-30T06:46:46;13.88;;;4.13;;
6422;SDS011;3244;42.708;23.288;2024-01-30T06:49:12;6.13;;;4.35;;
6422;SDS011;3244;42.708;23.288;2024-01-30T06:51:39;5.95;;;4.40;;
6422;SDS011;3244;42.708;23.288;2024-01-30T06:54:05;5.25;;;2.90;;
6422;SDS011;3244;42.708;23.288;2024-01-30T06:56:33;4.18;;;2.70;;
6422;SDS011;3244;42.708;23.288;2024-01-30T06:59:00;5.97;;;2.60;;
6422;SDS011;3244;42.708;23.288;2024-01-30T07:01:27;8.93;;;3.03;;
6422;SDS011;3244;42.708;23.288;2024-01-30T07:03:54;2.65;;;2.50;;
6422;SDS011;3244;42.708;23.288;2024-01-30T07:06:20;4.50;;;2.85;;
6422;SDS011;3244;42.708;23.288;2024-01-30T07:08:47;3.75;;;3.45;;
6422;SDS011;3244;42.708;23.288;2024-01-30T07:11:18;3.25;;;3.05;;
6422;SDS011;3244;42.708;23.288;2024-01-30T07:13:46;6.18;;;3.88;;
6422;SDS011;3244;42.708;23.288;2024-01-30T07:16:13;5.05;;;3.47;;
6422;SDS011;3244;42.708;23.288;2024-01-30T07:18:39;4.28;;;3.58;;
6422;SDS011;3244;42.708;23.288;2024-01-30T07:21:06;3.65;;;3.35;;
6422;SDS011;3244;42.708;23.288;2024-01-30T07:23:32;3.30;;;2.60;;
6422;SDS011;3244;42.708;23.288;2024-01-30T07:25:59;4.55;;;3.45;;
6422;SDS011;3244;42.708;23.288;2024-01-30T07:28:26;3.08;;;2.85;;
6422;SDS011;3244;42.708;23.288;2024-01-30T07:30:54;3.08;;;2.85;;
6422;SDS011;3244;42.708;23.288;2024-01-30T07:33:20;5.47;;;3.45;;
6422;SDS011;3244;42.708;23.288;2024-01-30T07:35:46;3.65;;;2.90;;
6422;SDS011;3244;42.708;23.288;2024-01-30T07:38:13;4.95;;;2.65;;
6422;SDS011;3244;42.708;23.288;2024-01-30T07:40:39;6.97;;;3.17;;
6422;SDS011;3244;42.708;23.288;2024-01-30T07:43:06;2.88;;;2.60;;
6422;SDS011;3244;42.708;23.288;2024-01-30T07:45:33;3.33;;;3.03;;
6422;SDS011;3244;42.708;23.288;2024-01-30T07:48:01;2.70;;;2.42;;
6422;SDS011;3244;42.708;23.288;2024-01-30T07:50:27;2.85;;;2.58;;
6422;SDS011;3244;42.708;23.288;2024-01-30T07:52:55;4.53;;;3.05;;
6422;SDS011;3244;42.708;23.288;2024-01-30T07:55:21;3.47;;;3.17;;
6422;SDS011;3244;42.708;23.288;2024-01-30T07:57:49;6.72;;;2.67;;
6422;SDS011;3244;42.708;23.288;2024-01-30T08:00:18;3.05;;;2.85;;
6422;SDS011;3244;42.708;23.288;2024-01-30T08:02:45;3.78;;;3.35;;
6422;SDS011;3244;42.708;23.288;2024-01-30T08:05:13;7.80;;;3.08;;
6422;SDS011;3244;42.708;23.288;2024-01-30T08:07:40;11.15;;;3.25;;
6422;SDS011;3244;42.708;23.288;2024-01-30T08:10:07;6.85;;;3.13;;
6422;SDS011;3244;42.708;23.288;2024-01-30T08:12:33;4.13;;;2.97;;
6422;SDS011;3244;42.708;23.288;2024-01-30T08:15:00;2.92;;;2.72;;
6422;SDS011;3244;42.708;23.288;2024-01-30T08:17:26;4.03;;;3.63;;
6422;SDS011;3244;42.708;23.288;2024-01-30T08:19:53;3.53;;;3.22;;
6422;SDS011;3244;42.708;23.288;2024-01-30T08:22:20;4.15;;;3.08;;
6422;SDS011;3244;42.708;23.288;2024-01-30T08:24:47;3.50;;;3.03;;
6422;SDS011;3244;42.708;23.288;2024-01-30T08:27:13;2.88;;;2.42;;
6422;SDS011;3244;42.708;23.288;2024-01-30T08:29:40;4.70;;;3.30;;
6422;SDS011;3244;42.708;23.288;2024-01-30T08:32:06;3.38;;;3.08;;
6422;SDS011;3244;42.708;23.288;2024-01-30T08:34:33;4.43;;;2.60;;
6422;SDS011;3244;42.708;23.288;2024-01-30T08:36:59;4.63;;;3.08;;
6422;SDS011;3244;42.708;23.288;2024-01-30T08:39:27;9.10;;;3.72;;
6422;SDS011;3244;42.708;23.288;2024-01-30T08:41:54;12.40;;;3.88;;
6422;SDS011;3244;42.708;23.288;2024-01-30T08:44:20;3.80;;;3.50;;
6422;SDS011;3244;42.708;23.288;2024-01-30T08:46:46;4.07;;;3.33;;
6422;SDS011;3244;42.708;23.288;2024-01-30T08:49:13;3.30;;;3.00;;
6422;SDS011;3244;42.708;23.288;2024-01-30T08:51:42;4.25;;;3.20;;
6422;SDS011;3244;42.708;23.288;2024-01-30T08:54:08;3.55;;;3.25;;
6422;SDS011;3244;42.708;23.288;2024-01-30T08:56:36;2.78;;;2.58;;
6422;SDS011;3244;42.708;23.288;2024-01-30T08:59:02;2.17;;;1.98;;
6422;SDS011;3244;42.708;23.288;2024-01-30T09:01:29;2.10;;;2.00;;
6422;SDS011;3244;42.708;23.288;2024-01-30T09:03:55;2.85;;;2.65;;
6422;SDS011;3244;42.708;23.288;2024-01-30T09:06:22;3.33;;;3.03;;
6422;SDS011;3244;42.708;23.288;2024-01-30T09:08:49;3.33;;;2.45;;
6422;SDS011;3244;42.708;23.288;2024-01-30T09:11:15;3.13;;;2.80;;
6422;SDS011;3244;42.708;23.288;2024-01-30T09:13:43;4.70;;;3.90;;
6422;SDS011;3244;42.708;23.288;2024-01-30T09:16:09;3.60;;;3.30;;
6422;SDS011;3244;42.708;23.288;2024-01-30T09:18:36;5.70;;;3.38;;
6422;SDS011;3244;42.708;23.288;2024-01-30T09:21:02;6.22;;;2.88;;
6422;SDS011;3244;42.708;23.288;2024-01-30T09:23:29;3.78;;;3.15;;
6422;SDS011;3244;42.708;23.288;2024-01-30T09:25:55;3.05;;;2.58;;
6422;SDS011;3244;42.708;23.288;2024-01-30T09:28:21;2.90;;;2.70;;
6422;SDS011;3244;42.708;23.288;2024-01-30T09:30:49;4.93;;;3.97;;
6422;SDS011;3244;42.708;23.288;2024-01-30T09:33:15;3.22;;;2.90;;
6422;SDS011;3244;42.708;23.288;2024-01-30T09:35:42;3.70;;;2.38;;
6422;SDS011;3244;42.708;23.288;2024-01-30T09:38:08;3.15;;;2.95;;
6422;SDS011;3244;42.708;23.288;2024-01-30T09:40:35;2.13;;;2.03;;
6422;SDS011;3244;42.708;23.288;2024-01-30T09:43:03;2.58;;;2.38;;
6422;SDS011;3244;42.708;23.288;2024-01-30T09:45:29;9.02;;;2.83;;
6422;SDS011;3244;42.708;23.288;2024-01-30T09:47:58;2.88;;;2.50;;
6422;SDS011;3244;42.708;23.288;2024-01-30T09:50:25;2.45;;;2.25;;
6422;SDS011;3244;42.708;23.288;2024-01-30T09:52:52;2.85;;;2.35;;
6422;SDS011;3244;42.708;23.288;2024-01-30T09:55:24;3.03;;;2.75;;
6422;SDS011;3244;42.708;23.288;2024-01-30T09:57:51;3.00;;;2.70;;
6422;SDS011;3244;42.708;23.288;2024-01-30T10:00:17;2.58;;;2.30;;
6422;SDS011;3244;42.708;23.288;2024-01-30T10:02:44;2.67;;;2.25;;
6422;SDS011;3244;42.708;23.288;2024-01-30T10:05:13;3.15;;;2.35;;
6422;SDS011;3244;42.708;23.288;2024-01-30T10:07:49;4.70;;;2.08;;
6422;SDS011;3244;42.708;23.288;2024-01-30T10:10:15;2.42;;;2.22;;
6422;SDS011;3244;42.708;23.288;2024-01-30T10:12:42;2.20;;;2.10;;
6422;SDS011;3244;42.708;23.288;2024-01-30T10:15:08;3.30;;;2.42;;
6422;SDS011;3244;42.708;23.288;2024-01-30T10:17:37;4.97;;;2.35;;
6422;SDS011;3244;42.708;23.288;2024-01-30T10:20:04;2.40;;;2.25;;
6422;SDS011;3244;42.708;23.288;2024-01-30T10:22:32;2.45;;;2.25;;
6422;SDS011;3244;42.708;23.288;2024-01-30T10:24:58;2.90;;;2.70;;
6422;SDS011;3244;42.708;23.288;2024-01-30T10:27:26;3.42;;;2.70;;
6422;SDS011;3244;42.708;23.288;2024-01-30T10:29:54;1.75;;;1.65;;
6422;SDS011;3244;42.708;23.288;2024-01-30T10:32:21;2.90;;;2.63;;
6422;SDS011;3244;42.708;23.288;2024-01-30T10:34:48;2.42;;;2.22;;
6422;SDS011;3244;42.708;23.288;2024-01-30T10:37:15;1.58;;;1.48;;
6422;SDS011;3244;42.708;23.288;2024-01-30T10:39:43;4.97;;;2.03;;
6422;SDS011;3244;42.708;23.288;2024-01-30T10:42:11;2.17;;;2.05;;
6422;SDS011;3244;42.708;23.288;2024-01-30T10:44:39;2.63;;;2.42;;
6422;SDS011;3244;42.708;23.288;2024-01-30T10:47:11;2.80;;;2.50;;
6422;SDS011;3244;42.708;23.288;2024-01-30T10:49:39;2.17;;;1.65;;
6422;SDS011;3244;42.708;23.288;2024-01-30T10:52:05;4.47;;;2.15;;
6422;SDS011;3244;42.708;23.288;2024-01-30T10:54:34;2.25;;;1.80;;
6422;SDS011;3244;42.708;23.288;2024-01-30T10:57:02;2.53;;;1.70;;
6422;SDS011;3244;42.708;23.288;2024-01-30T10:59:29;5.75;;;2.05;;
6422;SDS011;3244;42.708;23.288;2024-01-30T11:01:56;2.85;;;2.00;;
6422;SDS011;3244;42.708;23.288;2024-01-30T11:04:23;1.60;;;1.50;;
6422;SDS011;3244;42.708;23.288;2024-01-30T11:06:50;1.25;;;1.25;;
6422;SDS011;3244;42.708;23.288;2024-01-30T11:09:17;2.75;;;2.55;;
6422;SDS011;3244;42.708;23.288;2024-01-30T11:11:48;2.58;;;2.38;;
6422;SDS011;3244;42.708;23.288;2024-01-30T11:14:17;2.08;;;1.98;;
6422;SDS011;3244;42.708;23.288;2024-01-30T11:16:48;2.20;;;1.80;;
6422;SDS011;3244;42.708;23.288;2024-01-30T11:19:15;1.80;;;1.70;;
6422;SDS011;3244;42.708;23.288;2024-01-30T11:21:41;1.88;;;1.77;;
6422;SDS011;3244;42.708;23.288;2024-01-30T11:24:08;3.30;;;1.67;;
6422;SDS011;3244;42.708;23.288;2024-01-30T11:26:34;2.72;;;2.20;;
6422;SDS011;3244;42.708;23.288;2024-01-30T11:29:02;2.20;;;2.00;;
6422;SDS011;3244;42.708;23.288;2024-01-30T11:31:30;2.47;;;2.30;;
6422;SDS011;3244;42.708;23.288;2024-01-30T11:33:57;2.45;;;2.25;;
6422;SDS011;3244;42.708;23.288;2024-01-30T11:36:25;2.28;;;2.10;;
6422;SDS011;3244;42.708;23.288;2024-01-30T11:38:52;2.53;;;2.33;;
6422;SDS011;3244;42.708;23.288;2024-01-30T11:41:18;3.08;;;2.53;;
6422;SDS011;3244;42.708;23.288;2024-01-30T11:43:50;1.50;;;1.40;;
6422;SDS011;3244;42.708;23.288;2024-01-30T11:46:17;2.63;;;2.42;;
6422;SDS011;3244;42.708;23.288;2024-01-30T11:48:45;2.47;;;2.30;;
6422;SDS011;3244;42.708;23.288;2024-01-30T11:51:12;2.10;;;2.00;;
6422;SDS011;3244;42.708;23.288;2024-01-30T11:53:39;2.85;;;2.20;;
6422;SDS011;3244;42.708;23.288;2024-01-30T11:56:05;4.22;;;2.60;;
6422;SDS011;3244;42.708;23.288;2024-01-30T11:58:32;2.42;;;2.10;;
6422;SDS011;3244;42.708;23.288;2024-01-30T12:00:58;2.60;;;2.40;;
6422;SDS011;3244;42.708;23.288;2024-01-30T12:03:25;2.42;;;2.22;;
6422;SDS011;3244;42.708;23.288;2024-01-30T12:05:56;3.17;;;2.92;;
6422;SDS011;3244;42.708;23.288;2024-01-30T12:08:23;2.53;;;2.33;;
6422;SDS011;3244;42.708;23.288;2024-01-30T12:10:55;2.47;;;2.25;;
6422;SDS011;3244;42.708;23.288;2024-01-30T12:13:22;2.88;;;2.67;;
6422;SDS011;3244;42.708;23.288;2024-01-30T12:15:48;2.47;;;2.33;;
6422;SDS011;3244;42.708;23.288;2024-01-30T12:18:18;4.07;;;2.55;;
6422;SDS011;3244;42.708;23.288;2024-01-30T12:20:44;3.00;;;2.80;;
6422;SDS011;3244;42.708;23.288;2024-01-30T12:23:13;2.00;;;1.90;;
6422;SDS011;3244;42.708;23.288;2024-01-30T12:25:39;2.47;;;2.28;;
6422;SDS011;3244;42.708;23.288;2024-01-30T12:28:06;3.95;;;2.45;;
6422;SDS011;3244;42.708;23.288;2024-01-30T12:30:32;2.45;;;1.98;;
6422;SDS011;3244;42.708;23.288;2024-01-30T12:33:01;2.88;;;2.63;;
6422;SDS011;3244;42.708;23.288;2024-01-30T12:35:29;2.30;;;2.20;;
6422;SDS011;3244;42.708;23.288;2024-01-30T12:37:56;2.72;;;2.53;;
6422;SDS011;3244;42.708;23.288;2024-01-30T12:40:24;2.70;;;2.50;;
6422;SDS011;3244;42.708;23.288;2024-01-30T12:42:51;1.40;;;1.40;;
6422;SDS011;3244;42.708;23.288;2024-01-30T12:45:18;2.20;;;2.10;;
6422;SDS011;3244;42.708;23.288;2024-01-30T12:47:46;3.00;;;1.90;;
6422;SDS011;3244;42.708;23.288;2024-01-30T12:50:13;2.70;;;2.50;;
6422;SDS011;3244;42.708;23.288;2024-01-30T12:52:40;3.85;;;2.55;;
6422;SDS011;3244;42.708;23.288;2024-01-30T12:55:07;3.05;;;2.85;;
6422;SDS011;3244;42.708;23.288;2024-01-30T12:57:35;2.63;;;2.42;;
6422;SDS011;3244;42.708;23.288;2024-01-30T13:00:02;3.72;;;3.40;;
6422;SDS011;3244;42.708;23.288;2024-01-30T13:02:28;3.20;;;2.92;;
6422;SDS011;3244;42.708;23.288;2024-01-30T13:04:59;4.43;;;2.67;;
6422;SDS011;3244;42.708;23.288;2024-01-30T13:07:26;2.40;;;2.20;;
6422;SDS011;3244;42.708;23.288;2024-01-30T13:09:53;2.33;;;2.15;;
6422;SDS011;3244;42.708;23.288;2024-01-30T13:12:19;3.45;;;2.80;;
6422;SDS011;3244;42.708;23.288;2024-01-30T13:14:48;3.38;;;3.08;;
6422;SDS011;3244;42.708;23.288;2024-01-30T13:17:14;3.08;;;2.75;;
6422;SDS011;3244;42.708;23.288;2024-01-30T13:19:41;3.00;;;2.72;;
6422;SDS011;3244;42.708;23.288;2024-01-30T13:22:07;5.13;;;2.65;;
6422;SDS011;3244;42.708;23.288;2024-01-30T13:24:33;2.63;;;2.42;;
6422;SDS011;3244;42.708;23.288;2024-01-30T13:27:00;3.42;;;2.63;;
6422;SDS011;3244;42.708;23.288;2024-01-30T13:29:26;5.68;;;3.40;;
6422;SDS011;3244;42.708;23.288;2024-01-30T13:31:54;3.58;;;2.60;;
6422;SDS011;3244;42.708;23.288;2024-01-30T13:34:21;3.28;;;3.05;;
6422;SDS011;3244;42.708;23.288;2024-01-30T13:36:48;3.50;;;3.20;;
6422;SDS011;3244;42.708;23.288;2024-01-30T13:39:14;3.33;;;3.03;;
6422;SDS011;3244;42.708;23.288;2024-01-30T13:41:41;2.83;;;2.58;;
6422;SDS011;3244;42.708;23.288;2024-01-30T13:44:07;3.72;;;2.95;;
6422;SDS011;3244;42.708;23.288;2024-01-30T13:46:34;4.15;;;3.85;;
6422;SDS011;3244;42.708;23.288;2024-01-30T13:49:02;3.95;;;3.10;;
6422;SDS011;3244;42.708;23.288;2024-01-30T13:51:28;2.28;;;2.08;;
6422;SDS011;3244;42.708;23.288;2024-01-30T13:53:55;3.97;;;3.17;;
6422;SDS011;3244;42.708;23.288;2024-01-30T13:56:21;5.32;;;4.10;;
6422;SDS011;3244;42.708;23.288;2024-01-30T13:58:48;5.05;;;4.55;;
6422;SDS011;3244;42.708;23.288;2024-01-30T14:01:14;2.15;;;2.05;;
6422;SDS011;3244;42.708;23.288;2024-01-30T14:03:41;3.22;;;1.85;;
6422;SDS011;3244;42.708;23.288;2024-01-30T14:06:09;2.95;;;2.03;;
6422;SDS011;3244;42.708;23.288;2024-01-30T14:08:35;4.93;;;3.88;;
6422;SDS011;3244;42.708;23.288;2024-01-30T14:11:02;3.72;;;3.38;;
6422;SDS011;3244;42.708;23.288;2024-01-30T14:13:28;3.20;;;2.90;;
6422;SDS011;3244;42.708;23.288;2024-01-30T14:15:56;5.45;;;3.05;;
6422;SDS011;3244;42.708;23.288;2024-01-30T14:18:22;3.58;;;2.55;;
6422;SDS011;3244;42.708;23.288;2024-01-30T14:20:50;3.95;;;3.55;;
6422;SDS011;3244;42.708;23.288;2024-01-30T14:23:18;3.90;;;3.50;;
6422;SDS011;3244;42.708;23.288;2024-01-30T14:25:45;3.55;;;3.25;;
6422;SDS011;3244;42.708;23.288;2024-01-30T14:28:11;6.57;;;3.80;;
6422;SDS011;3244;42.708;23.288;2024-01-30T14:30:38;3.53;;;2.50;;
6422;SDS011;3244;42.708;23.288;2024-01-30T14:33:05;3.75;;;3.20;;
6422;SDS011;3244;42.708;23.288;2024-01-30T14:35:32;4.50;;;3.08;;
6422;SDS011;3244;42.708;23.288;2024-01-30T14:37:58;3.97;;;3.67;;
6422;SDS011;3244;42.708;23.288;2024-01-30T14:40:26;4.45;;;4.03;;
6422;SDS011;3244;42.708;23.288;2024-01-30T14:42:53;3.63;;;3.30;;
6422;SDS011;3244;42.708;23.288;2024-01-30T14:45:19;5.32;;;3.53;;
6422;SDS011;3244;42.708;23.288;2024-01-30T14:47:47;4.35;;;3.67;;
6422;SDS011;3244;42.708;23.288;2024-01-30T14:50:14;4.22;;;3.85;;
6422;SDS011;3244;42.708;23.288;2024-01-30T14:52:41;4.18;;;3.88;;
6422;SDS011;3244;42.708;23.288;2024-01-30T14:55:08;4.00;;;3.70;;
6422;SDS011;3244;42.708;23.288;2024-01-30T14:57:36;4.95;;;3.70;;